You are not logged in, Click here to log in
阿塔圖克國際機場IST / LTBA 土耳其 位於伊斯坦堡市中心西南15公里
ICAO: LTBA Country: 土耳其 位於伊斯坦堡市中心西南15公里
Latitude: 40.9761 Longitude: 28.8142
Total Arrivals: 22 Total Departures: 21
Latest Arrival: MS735 (HECA-LTBA)Arthur. Kung Latest Departure: JX5530 (LTBA-LYBE)Arthur. Kung
Scenery:
METAR : LTBA 221050Z 02015KT 9999 SCT025 BKN100 09/01 Q1025 NOSIG RMK RWY17L 01014KT RWY05 03016KT RWY23 02017KT

阿塔圖克國際機場IST